Time;durP1;ratioP1;P1;durP2;ratioP2;P2;SDS_P1;SDS_P2;PMS_P1;PMS_P2;Temp;Humidity;BMP_temperature;BMP_pressure;BME280_temperature;BME280_humidity;BME280_pressure;Samples;Min_cycle;Max_cycle;Signal;HPM_P1;HPM_P2
2022/12/16 00:01:53;;;;;;;1999.90;999.90;;;-0.80;99.90;;;;;;5007400;28;20458;-67
2022/12/16 00:04:20;;;;;;;1999.90;999.90;;;-0.90;99.90;;;;;;5007178;28;20982;-68
2022/12/16 00:06:46;;;;;;;1999.90;999.90;;;-0.90;99.90;;;;;;5007677;28;20456;-69
2022/12/16 00:09:13;;;;;;;1999.90;999.90;;;-0.90;99.90;;;;;;5006660;28;20452;-69
2022/12/16 00:11:41;;;;;;;1999.90;999.90;;;-0.90;99.90;;;;;;5007644;28;20445;-69
2022/12/16 00:14:08;;;;;;;1999.90;999.90;;;-0.80;99.90;;;;;;5007112;28;20470;-69
2022/12/16 00:16:35;;;;;;;1999.90;999.90;;;-0.90;99.90;;;;;;5007545;28;20481;-68
2022/12/16 00:19:02;;;;;;;1999.90;999.90;;;-0.90;99.90;;;;;;5006594;28;20460;-69
2022/12/16 00:21:28;;;;;;;1999.90;999.90;;;-0.90;99.90;;;;;;5007660;28;20461;-68
2022/12/16 00:23:56;;;;;;;1999.90;999.90;;;-0.90;99.90;;;;;;5006898;28;20473;-69
2022/12/16 00:26:23;;;;;;;1999.90;999.90;;;-0.90;99.90;;;;;;5007308;28;20446;-69
2022/12/16 00:28:51;;;;;;;1999.90;999.90;;;-0.90;99.90;;;;;;5006394;28;20462;-68
2022/12/16 00:31:18;;;;;;;1999.90;999.90;;;-0.90;99.90;;;;;;5007418;28;21269;-68
2022/12/16 00:33:45;;;;;;;1999.90;999.90;;;-0.90;99.90;;;;;;5007160;28;20469;-67
2022/12/16 00:36:12;;;;;;;1999.90;999.90;;;-0.90;99.90;;;;;;5007383;28;20454;-68
2022/12/16 00:38:39;;;;;;;1999.90;999.90;;;-0.90;99.90;;;;;;5006281;28;20996;-68
2022/12/16 00:41:06;;;;;;;1999.90;999.90;;;-0.90;99.90;;;;;;5007446;28;20457;-69
2022/12/16 00:43:33;;;;;;;1999.90;999.90;;;-0.90;99.90;;;;;;5007063;28;20478;-69
2022/12/16 00:46:01;;;;;;;1999.90;999.90;;;-0.90;99.90;;;;;;5007244;28;20468;-68
2022/12/16 00:48:28;;;;;;;1999.90;999.90;;;-0.90;99.90;;;;;;5006620;28;20446;-68
2022/12/16 00:50:55;;;;;;;1999.90;999.90;;;-1.00;99.90;;;;;;5007211;28;20446;-68
2022/12/16 00:53:23;;;;;;;1999.90;999.90;;;-0.90;99.90;;;;;;5006524;28;20469;-69
2022/12/16 00:55:50;;;;;;;1999.90;999.90;;;-0.90;99.90;;;;;;5019193;28;20444;-69
2022/12/16 00:58:17;;;;;;;1999.90;999.90;;;-0.80;99.90;;;;;;5026665;28;20492;-69
2022/12/16 01:00:43;;;;;;;1999.90;999.90;;;-0.80;99.90;;;;;;5027272;28;20984;-69
2022/12/16 01:03:12;;;;;;;1999.90;999.90;;;-0.80;99.90;;;;;;5026644;28;20476;-69
2022/12/16 01:05:38;;;;;;;1999.90;999.90;;;-0.80;99.90;;;;;;5027227;28;20461;-69
2022/12/16 01:08:05;;;;;;;1999.90;999.90;;;-0.80;99.90;;;;;;5026745;28;20811;-68
2022/12/16 01:10:32;;;;;;;1999.90;999.90;;;-0.80;99.90;;;;;;5026461;28;20447;-69
2022/12/16 01:12:59;;;;;;;1999.90;999.90;;;-0.80;99.90;;;;;;5026389;28;20472;-68
2022/12/16 01:15:26;;;;;;;1999.90;999.90;;;-0.90;99.90;;;;;;5029826;28;20505;-68
2022/12/16 01:17:52;;;;;;;1999.90;999.90;;;-0.90;99.90;;;;;;5030531;28;20536;-68
2022/12/16 01:20:21;;;;;;;1999.90;999.90;;;-0.90;99.90;;;;;;5029641;28;20444;-68
2022/12/16 01:22:47;;;;;;;1999.90;999.90;;;-0.90;99.90;;;;;;5030243;28;20467;-68
2022/12/16 01:25:14;;;;;;;1999.90;999.90;;;-0.90;99.90;;;;;;5030471;28;20452;-68
2022/12/16 01:27:41;;;;;;;1999.90;999.90;;;-1.00;99.90;;;;;;5030680;28;20456;-68
2022/12/16 01:30:10;;;;;;;1999.90;999.90;;;-0.90;99.90;;;;;;5029413;28;20449;-68
2022/12/16 01:32:37;;;;;;;1999.90;999.90;;;-0.90;99.90;;;;;;5008350;28;20476;-69
2022/12/16 01:35:05;;;;;;;1999.90;999.90;;;-0.90;99.90;;;;;;5009741;28;20442;-68
2022/12/16 01:37:33;;;;;;;1999.90;999.90;;;-0.90;99.90;;;;;;5008765;28;20491;-68
2022/12/16 01:40:00;;;;;;;1999.90;999.90;;;-1.00;99.90;;;;;;5009276;28;20450;-69
2022/12/16 01:42:29;;;;;;;1999.90;999.90;;;-1.00;99.90;;;;;;5009817;28;20460;-69
2022/12/16 01:44:57;;;;;;;1999.90;999.90;;;-1.00;99.90;;;;;;5010175;28;20462;-69
2022/12/16 01:47:28;;;;;;;1999.90;999.90;;;-1.00;99.90;;;;;;4992218;28;20444;-69
2022/12/16 01:50:01;;;;;;;1999.90;999.90;;;-1.00;99.90;;;;;;5006652;28;20456;-69
2022/12/16 01:52:32;;;;;;;1999.90;999.90;;;-0.90;99.90;;;;;;5009265;28;20473;-69
2022/12/16 01:55:06;;;;;;;1999.90;999.90;;;-0.90;99.90;;;;;;5010339;28;20479;-69
2022/12/16 01:57:39;;;;;;;1999.90;999.90;;;-0.90;99.90;;;;;;5019065;28;20904;-69
2022/12/16 02:00:08;;;;;;;1999.90;999.90;;;-0.90;99.90;;;;;;5028915;28;20471;-70
2022/12/16 02:02:35;;;;;;;1999.90;999.90;;;-0.80;99.90;;;;;;5029138;28;20909;-69
2022/12/16 02:05:20;;;;;;;1999.90;999.90;;;-0.80;99.90;;;;;;5029588;28;20451;-70
2022/12/16 02:07:56;;;;;;;1999.90;999.90;;;-0.80;99.90;;;;;;5029482;28;20445;-70
2022/12/16 02:10:31;;;;;;;1999.90;999.90;;;-0.80;99.90;;;;;;5028605;28;20457;-69
2022/12/16 02:13:04;;;;;;;1999.90;999.90;;;-0.70;99.90;;;;;;5029025;28;20472;-69
2022/12/16 02:15:40;;;;;;;1999.90;999.90;;;-0.70;99.90;;;;;;5029461;28;20457;-69
2022/12/16 02:18:16;;;;;;;1999.90;999.90;;;-0.70;99.90;;;;;;5029144;28;20487;-68
2022/12/16 02:21:15;;;;;;;1999.90;999.90;;;-0.70;99.90;;;;;;5029216;28;20461;-69
2022/12/16 02:24:15;;;;;;;1999.90;999.90;;;-0.70;99.90;;;;;;5028803;28;20480;-69
2022/12/16 02:27:16;;;;;;;1999.90;999.90;;;-0.70;99.90;;;;;;5028150;28;20464;-68
2022/12/16 02:30:11;;;;;;;1999.90;999.90;;;-0.70;99.90;;;;;;5028359;28;20452;-69
2022/12/16 02:32:53;;;;;;;1999.90;999.90;;;-0.60;99.90;;;;;;5028803;28;20551;-69
2022/12/16 02:35:27;;;;;;;1999.90;999.90;;;-0.70;99.90;;;;;;5028740;28;20887;-69
2022/12/16 02:38:03;;;;;;;1999.90;999.90;;;-0.70;99.90;;;;;;5029239;28;20483;-67
2022/12/16 02:40:38;;;;;;;1999.90;999.90;;;-0.60;99.90;;;;;;5028209;28;20452;-69
2022/12/16 02:43:11;;;;;;;1999.90;999.90;;;-0.70;99.90;;;;;;5011704;28;20504;-68
2022/12/16 02:45:38;;;;;;;1999.90;999.90;;;-0.70;99.90;;;;;;5028783;28;20939;-68
2022/12/16 02:48:07;;;;;;;1999.90;999.90;;;-0.70;99.90;;;;;;5028473;28;20444;-68
2022/12/16 02:50:37;;;;;;;1999.90;999.90;;;-0.70;99.90;;;;;;5028030;28;20445;-69
2022/12/16 02:53:05;;;;;;;1999.90;999.90;;;-0.70;99.90;;;;;;5028304;28;20464;-67
2022/12/16 02:55:42;;;;;;;1999.90;999.90;;;-0.70;99.90;;;;;;5028699;28;20479;-69
2022/12/16 02:58:18;;;;;;;1999.90;999.90;;;-0.60;99.90;;;;;;5028153;28;20476;-68
2022/12/16 03:00:55;;;;;;;1999.90;999.90;;;-0.60;99.90;;;;;;5028595;28;20514;-69
2022/12/16 03:03:28;;;;;;;1999.90;999.90;;;-0.60;99.90;;;;;;5027870;28;20476;-68
2022/12/16 03:05:57;;;;;;;1999.90;999.90;;;-0.50;99.90;;;;;;5028532;28;21221;-69
2022/12/16 03:08:31;;;;;;;1999.90;999.90;;;-0.60;99.90;;;;;;5027322;28;20447;-69
2022/12/16 03:11:01;;;;;;;1999.90;999.90;;;-0.60;99.90;;;;;;5028378;28;20542;-69
2022/12/16 03:13:32;;;;;;;1999.90;999.90;;;-0.60;99.90;;;;;;5027692;28;20483;-68
2022/12/16 03:16:03;;;;;;;1999.90;999.90;;;-0.60;99.90;;;;;;5028266;28;20461;-69
2022/12/16 03:18:32;;;;;;;1999.90;999.90;;;-0.50;99.90;;;;;;5026977;28;20473;-69
2022/12/16 03:21:02;;;;;;;1999.90;999.90;;;-0.40;99.90;;;;;;5028051;28;20448;-69
2022/12/16 03:23:33;;;;;;;1999.90;999.90;;;-0.40;99.90;;;;;;5027891;28;20471;-69
2022/12/16 03:26:06;;;;;;;1999.90;999.90;;;-0.40;99.90;;;;;;5028288;28;20449;-69
2022/12/16 03:28:43;;;;;;;1999.90;999.90;;;-0.40;99.90;;;;;;5027413;28;20440;-69
2022/12/16 03:31:19;;;;;;;1999.90;999.90;;;-0.40;99.90;;;;;;5027740;28;20934;-69
2022/12/16 03:33:51;;;;;;;1999.90;999.90;;;-0.50;99.90;;;;;;5027569;28;20476;-68
2022/12/16 03:36:22;;;;;;;1999.90;999.90;;;-0.50;99.90;;;;;;5027952;28;20445;-69
2022/12/16 03:38:50;;;;;;;1999.90;999.90;;;-0.50;99.90;;;;;;5027110;28;20476;-67
2022/12/16 03:41:20;;;;;;;1999.90;999.90;;;-0.50;99.90;;;;;;5027772;28;20444;-69
2022/12/16 03:43:48;;;;;;;1999.90;999.90;;;-0.60;99.90;;;;;;5027595;28;20518;-68
2022/12/16 03:46:16;;;;;;;1999.90;999.90;;;-0.60;99.90;;;;;;5027748;28;20436;-68
2022/12/16 03:48:49;;;;;;;1999.90;999.90;;;-0.60;99.90;;;;;;5027510;28;20598;-68
2022/12/16 03:51:16;;;;;;;1999.90;999.90;;;-0.70;99.90;;;;;;5027816;28;20456;-69
2022/12/16 03:53:43;;;;;;;1999.90;999.90;;;-0.80;99.90;;;;;;5027681;28;20473;-68
2022/12/16 03:56:10;;;;;;;1999.90;999.90;;;-0.80;99.90;;;;;;5027817;28;20445;-68
2022/12/16 03:58:38;;;;;;;1999.90;999.90;;;-0.80;99.90;;;;;;5026421;28;20491;-69
2022/12/16 04:01:06;;;;;;;1999.90;999.90;;;-0.90;99.90;;;;;;5027918;28;20484;-68
2022/12/16 04:03:33;;;;;;;1999.90;999.90;;;-0.90;99.90;;;;;;5026859;28;21077;-69
2022/12/16 04:06:01;;;;;;;1999.90;999.90;;;-0.90;99.90;;;;;;5027638;28;20532;-68
2022/12/16 04:08:28;;;;;;;1999.90;999.90;;;-0.90;99.90;;;;;;5026471;28;20483;-68
2022/12/16 04:24:46;;;;;;;1999.90;999.90;;;-1.00;99.90;;;;;;4986385;28;20433;-69
